Latest Weather Observations for Karratha

IDW60801

Issued at 8:02 pm WST Sunday 21 December 2014 (issued every 30 minutes, with the page automatically refreshed every 10 minutes)

About weather observations | Map of weather stations | Latest weather observations for WA | Other Formats
Station Details ID: 004083 Name: KARRATHA AERO Lat: -20.71 Lon: 116.77 Height: 5.3 m
Data from the previous 72 hours. | See also: Recent months at Karratha
Date/Time
WST
Temp
°C
App
Temp
°C
Dew
Point
Rel
Hum
%
Delta-T
°C
Wind Press
QNH
hPa
Press
MSL
hPa
Rain
since 9 am
mm
Dir
 
Spd
km/h
Gust
km/h
Spd
kts
Gust
kts
21/08:00pm 28.1 26.9 20.9 65 4.8 W 28 32 15 17 1006.3 1006.3 0.0
21/07:30pm 28.3 27.1 20.8 63 5.0 W 28 32 15 17 1005.9 1005.9 0.0
21/07:00pm 28.3 27.5 21.6 67 4.5 WNW 28 37 15 20 1005.4 1005.3 0.0
21/06:30pm 29.0 27.9 21.0 62 5.3 WNW 28 37 15 20 1005.3 1005.2 0.0
21/06:00pm 29.3 27.3 19.9 57 6.2 WNW 30 37 16 20 1005.0 1004.9 0.0
21/05:30pm 30.2 28.2 19.9 54 6.8 WNW 30 39 16 21 1005.0 1004.9 0.0
21/05:00pm 30.8 29.2 21.6 58 6.2 WNW 32 41 17 22 1005.1 1005.0 0.0
21/04:30pm 30.9 29.4 21.7 58 6.2 WNW 32 41 17 22 1005.3 1005.2 0.0
21/04:00pm 31.7 30.1 21.5 54 6.9 WNW 32 41 17 22 1005.4 1005.3 0.0
21/03:30pm 32.0 30.9 22.4 57 6.6 WNW 32 41 17 22 1005.6 1005.5 0.0
21/03:00pm 33.6 30.9 19.3 43 9.4 NW 32 41 17 22 1005.7 1005.6 0.0
21/02:30pm 33.6 32.5 22.4 52 7.7 WNW 32 39 17 21 1006.0 1006.0 0.0
21/02:00pm 33.5 32.7 22.3 52 7.7 NW 30 37 16 20 1006.2 1006.2 0.0
21/01:30pm 34.4 32.6 19.6 41 9.8 WNW 28 33 15 18 1006.3 1006.3 0.0
21/01:00pm 34.1 31.3 17.3 36 10.8 NW 28 35 15 19 1006.6 1006.6 0.0
21/12:30pm 34.5 32.0 18.1 37 10.6 WNW 28 33 15 18 1006.8 1006.8 0.0
21/12:00pm 34.7 33.8 19.9 42 9.9 NW 24 30 13 16 1007.2 1007.2 0.0
21/11:30am 33.1 33.9 22.5 53 7.3 NW 22 30 12 16 1007.3 1007.3 0.0
21/11:00am 32.4 33.7 23.3 58 6.3 WNW 22 28 12 15 1007.5 1007.5 0.0
21/10:30am 32.6 34.1 23.0 57 6.6 WNW 20 28 11 15 1007.8 1007.8 0.0
21/10:00am 32.4 32.0 19.3 46 8.6 WNW 20 26 11 14 1007.9 1007.9 0.0
21/09:30am 31.3 31.4 19.9 50 7.5 WNW 19 24 10 13 1008.1 1008.1 0.0
21/09:00am 31.3 31.6 19.6 49 7.7 W 17 24 9 13 1008.2 1008.2 0.0
21/08:30am 30.2 30.4 20.2 55 6.6 W 19 24 10 13 1008.1 1008.1 0.0
21/08:00am 29.1 29.3 20.5 59 5.7 W 20 24 11 13 1008.1 1008.1 0.0
21/07:30am 28.8 28.8 21.0 62 5.2 WSW 22 26 12 14 1008.2 1008.2 0.0
21/07:00am 28.1 28.3 22.1 70 4.0 WSW 24 28 13 15 1008.0 1008.0 0.0
21/06:30am 27.5 28.2 22.9 76 3.1 WSW 24 28 13 15 1008.0 1008.0 0.0
21/06:00am 26.8 28.1 23.3 81 2.4 W 22 26 12 14 1007.7 1007.7 0.0
21/05:30am 26.3 28.7 23.6 85 1.8 WSW 17 20 9 11 1007.6 1007.6 0.0
21/05:00am 26.6 28.7 23.7 84 2.0 WSW 19 22 10 12 1007.4 1007.4 0.0
21/04:30am 26.8 27.9 23.7 83 2.1 WSW 24 30 13 16 1007.1 1007.1 0.0
21/04:00am 26.7 28.8 23.8 84 2.0 WSW 19 24 10 13 1007.0 1007.0 0.0
21/03:30am 27.0 28.7 24.1 84 2.0 W 22 30 12 16 1006.7 1006.7 0.0
21/03:00am 27.0 28.6 23.9 83 2.1 W 22 28 12 15 1006.8 1006.8 0.0
21/02:30am 27.0 28.7 24.1 84 2.0 W 22 28 12 15 1007.1 1007.1 0.0
21/02:00am 26.9 27.5 23.4 81 2.4 W 26 30 14 16 1006.9 1006.9 0.0
21/01:30am 27.0 28.3 22.6 77 3.0 WNW 20 24 11 13 1007.5 1007.5 0.0
21/01:00am 27.0 28.5 22.0 74 3.4 WNW 17 20 9 11 1008.0 1008.0 0.0
21/12:30am 27.1 28.4 22.3 75 3.2 WNW 19 24 10 13 1008.0 1008.0 0.0
21/12:00am 27.3 28.4 22.0 73 3.6 WNW 19 24 10 13 1008.3 1008.3 0.0
 
Date/Time
WST
Temp
°C
App
Temp
°C
Dew
Point
Rel
Hum
%
Delta-T
°C
Wind Press
QNH
hPa
Press
MSL
hPa
Rain
since 9 am
mm
Dir
 
Spd
km/h
Gust
km/h
Spd
kts
Gust
kts
20/11:30pm 27.5 28.8 22.7 75 3.3 W 20 24 11 13 1008.6 1008.6 0.0
20/11:00pm 27.3 29.1 23.5 80 2.6 WNW 20 28 11 15 1008.6 1008.6 0.0
20/10:30pm 27.5 29.1 23.9 81 2.5 W 22 26 12 14 1008.6 1008.6 0.0
20/10:00pm 27.5 28.4 23.3 78 2.9 W 24 32 13 17 1008.6 1008.6 0.0
20/09:30pm 27.5 27.8 22.2 73 3.6 W 24 28 13 15 1008.3 1008.3 0.0
20/09:00pm 27.6 28.3 22.3 73 3.6 WNW 22 28 12 15 1007.9 1007.9 0.0
20/08:30pm 27.6 28.3 22.3 73 3.6 WNW 22 30 12 16 1007.5 1007.5 0.0
20/08:00pm 27.5 28.5 23.5 79 2.7 WNW 24 35 13 19 1007.5 1007.5 0.0
20/07:30pm 27.6 29.0 24.2 82 2.4 WNW 24 33 13 18 1006.9 1006.9 0.0
20/07:00pm 28.3 29.5 23.9 77 3.0 WNW 24 33 13 18 1006.6 1006.6 0.0
20/06:30pm 28.7 29.8 23.6 74 3.5 WNW 24 30 13 16 1006.2 1006.2 0.0
20/06:00pm 29.6 30.3 22.3 65 5.0 WNW 22 28 12 15 1006.1 1006.1 0.0
20/05:30pm 30.5 29.6 19.8 52 7.0 WNW 24 32 13 17 1006.2 1006.2 0.0
20/05:00pm 30.6 30.1 21.4 58 6.2 WNW 26 33 14 18 1006.1 1006.1 0.0
20/04:30pm 31.0 31.1 22.6 61 5.7 WNW 26 32 14 17 1006.1 1006.1 0.0
20/04:00pm 32.4 31.5 20.6 49 7.9 WNW 26 33 14 18 1005.9 1005.9 0.0
20/03:30pm 32.7 31.2 18.5 43 9.2 NW 24 32 13 17 1006.2 1006.2 0.0
20/03:00pm 32.7 31.7 21.2 50 7.8 WNW 28 33 15 18 1006.4 1006.4 0.0
20/02:30pm 33.1 33.4 22.2 52 7.4 NW 24 32 13 17 1006.6 1006.6 0.0
20/02:00pm 32.9 33.1 21.4 50 7.8 NNW 22 32 12 17 1007.1 1007.1 0.0
20/01:30pm 33.7 34.5 22.5 52 7.7 NW 22 30 12 16 1007.4 1007.4 0.0
20/01:00pm 32.0 33.0 23.5 60 5.9 WNW 24 30 13 16 1007.8 1007.8 0.0
20/12:30pm 31.7 32.9 23.8 63 5.5 NW 24 32 13 17 1008.2 1008.2 0.0
20/12:00pm 31.7 33.0 24.0 63 5.4 WNW 24 32 13 17 1008.5 1008.5 0.0
20/11:30am 32.0 33.1 24.3 63 5.4 WNW 26 32 14 17 1008.9 1008.9 0.0
20/11:00am 31.9 32.4 22.6 58 6.4 WNW 24 30 13 16 1009.4 1009.4 0.0
20/10:30am 33.3 34.4 23.0 54 7.1 WNW 22 30 12 16 1009.8 1009.8 0.0
20/10:00am 32.0 32.2 18.6 45 8.7 WNW 15 22 8 12 1010.2 1010.2 0.0
20/09:30am 31.3 32.7 21.8 57 6.4 WNW 17 22 9 12 1010.1 1010.1 0.0
20/09:00am 31.1 31.5 19.1 48 7.8 WNW 15 20 8 11 1010.3 1010.3 0.0
20/08:30am 30.2 30.7 18.3 49 7.6 W 13 19 7 10 1010.4 1010.4 0.0
20/08:00am 29.2 28.7 18.6 52 6.8 W 19 22 10 12 1010.3 1010.3 0.0
20/07:30am 28.8 28.3 18.6 54 6.6 W 19 22 10 12 1010.2 1010.2 0.0
20/07:00am 28.1 29.6 20.6 63 5.0 W 13 17 7 9 1010.0 1010.0 0.0
20/06:30am 26.7 29.9 21.2 72 3.6 WSW 6 7 3 4 1009.8 1009.8 0.0
20/06:00am 25.0 27.9 20.7 77 2.8 SW 6 7 3 4 1009.4 1009.4 0.0
20/05:30am 24.2 26.7 20.3 79 2.5 SSW 7 9 4 5 1009.2 1009.2 0.0
20/05:00am 25.1 27.5 20.1 74 3.3 WSW 7 9 4 5 1009.0 1009.0 0.0
20/04:30am 25.5 28.2 20.3 73 3.4 W 6 9 3 5 1009.0 1009.0 0.0
20/04:00am 24.9 28.0 21.4 81 2.3 W 7 9 4 5 1008.8 1008.8 0.0
20/03:30am 24.7 27.8 21.4 82 2.2 SW 7 9 4 5 1008.9 1008.9 0.0
20/03:00am 25.4 28.2 21.5 79 2.6 SW 9 13 5 7 1008.9 1008.9 0.0
20/02:30am 25.7 28.0 22.0 80 2.5 WSW 13 15 7 8 1008.9 1008.9 0.0
20/02:00am 25.5 27.5 22.2 82 2.2 SW 15 17 8 9 1008.9 1008.9 0.0
20/01:30am 25.7 27.9 22.6 83 2.1 SW 15 17 8 9 1009.3 1009.3 0.0
20/01:00am 25.8 28.1 22.7 83 2.1 SW 15 19 8 10 1009.5 1009.5 0.0
20/12:30am 26.3 28.7 23.0 82 2.2 SW 15 20 8 11 1010.0 1010.0 0.0
20/12:00am 26.9 28.2 22.7 78 2.8 WSW 20 24 11 13 1010.2 1010.2 0.0
 
Date/Time
WST
Temp
°C
App
Temp
°C
Dew
Point
Rel
Hum
%
Delta-T
°C
Wind Press
QNH
hPa
Press
MSL
hPa
Rain
since 9 am
mm
Dir
 
Spd
km/h
Gust
km/h
Spd
kts
Gust
kts
19/11:30pm 26.8 28.3 23.1 80 2.5 WSW 20 22 11 12 1010.6 1010.6 0.0
19/11:00pm 26.9 28.9 23.6 82 2.3 W 19 24 10 13 1011.0 1011.0 0.0
19/10:30pm 27.0 28.8 23.5 81 2.4 W 20 26 11 14 1011.3 1011.3 0.0
19/10:00pm 27.0 28.3 23.3 80 2.5 W 22 26 12 14 1011.3 1011.3 0.0
19/09:30pm 27.0 28.3 23.3 80 2.5 W 22 30 12 16 1011.1 1011.1 0.0
19/09:00pm 27.0 28.6 23.9 83 2.1 W 22 28 12 15 1010.9 1010.9 0.0
19/08:30pm 27.0 28.9 23.7 82 2.3 WNW 20 26 11 14 1010.6 1010.6 0.0
19/08:00pm 27.2 28.7 23.7 81 2.4 WNW 22 26 12 14 1010.3 1010.3 0.0
19/07:30pm 27.5 29.5 23.9 81 2.5 NW 20 24 11 13 1010.1 1010.1 0.0
19/07:00pm 28.1 28.9 23.2 74 3.4 WNW 24 32 13 17 1009.4 1009.4 0.0
19/06:30pm 28.9 29.1 21.4 64 5.0 NW 22 28 12 15 1009.4 1009.4 0.0
19/06:00pm 29.8 30.9 22.3 64 5.1 NNW 20 30 11 16 1009.1 1009.1 0.0
19/05:30pm 30.0 30.8 21.7 61 5.6 NNW 20 26 11 14 1009.1 1009.1 0.0
19/05:00pm 30.9 31.4 21.1 56 6.6 NNW 20 28 11 15 1008.9 1008.9 0.0
19/04:30pm 31.6 31.1 19.2 47 8.1 NNW 20 26 11 14 1008.6 1008.6 0.0
19/04:00pm 32.8 30.7 15.3 34 10.9 NNW 20 26 11 14 1008.4 1008.4 0.0
19/03:30pm 33.2 31.7 17.8 40 9.9 NW 22 28 12 15 1008.1 1008.1 0.0
19/03:00pm 33.8 32.4 17.1 37 10.7 NW 20 26 11 14 1008.4 1008.4 0.0
19/02:30pm 33.1 32.4 19.6 45 8.9 NW 22 28 12 15 1008.4 1008.4 0.0
19/02:00pm 33.1 34.0 21.9 51 7.6 NW 20 26 11 14 1008.9 1008.9 0.0
19/01:30pm 32.0 32.7 21.5 53 7.1 NNW 20 26 11 14 1009.0 1009.0 0.0
19/01:00pm 31.8 33.2 23.6 62 5.7 NNW 22 30 12 16 1009.1 1009.1 0.0
19/12:30pm 32.1 34.1 23.9 62 5.7 NNW 20 26 11 14 1009.3 1009.3 0.0
19/12:00pm 33.2 34.8 22.9 54 7.1 NW 19 24 10 13 1009.4 1009.4 0.0
19/11:30am 31.9 33.8 22.0 55 6.7 WNW 15 24 8 13 1009.6 1009.6 0.0
19/11:00am 31.9 33.4 22.0 55 6.7 WNW 17 24 9 13 1009.8 1009.8 0.0
19/10:30am 31.7 34.5 24.3 65 5.2 WNW 17 26 9 14 1010.0 1010.0 0.0
19/10:00am 30.6 33.0 24.3 69 4.4 WNW 19 24 10 13 1010.1 1010.1 0.0
19/09:30am 29.5 31.8 24.1 72 3.7 W 19 24 10 13 1010.1 1010.1 0.0
19/09:00am 29.1 32.0 24.4 76 3.3 WNW 17 24 9 13 1010.5 1010.5 0.0
19/08:30am 28.8 30.9 24.1 76 3.3 WNW 20 26 11 14 1010.3 1010.3 0.0
19/08:00am 28.5 31.3 24.3 78 2.9 WNW 17 20 9 11 1010.1 1010.1 0.0
19/07:30am 28.0 30.7 24.2 80 2.6 WNW 17 20 9 11 1009.8 1009.8 0.0
19/07:00am 27.1 30.0 24.4 85 1.9 NW 17 20 9 11 1009.4 1009.4 0.0
19/06:30am 26.9 29.8 24.5 87 1.7 WNW 17 20 9 11 1008.8 1008.8 0.0
19/06:00am 26.3 29.5 24.3 89 1.4 WNW 15 20 8 11 1008.5 1008.5 0.0
19/05:30am 26.1 28.8 24.1 89 1.4 WNW 17 20 9 11 1008.2 1008.2 0.0
19/05:00am 26.2 28.5 24.1 88 1.4 W 19 22 10 12 1008.0 1008.0 0.0
19/04:30am 26.0 29.1 24.2 90 1.2 NW 15 20 8 11 1008.1 1008.1 0.0
19/04:00am 26.0 28.7 24.2 90 1.2 WNW 17 19 9 10 1008.0 1008.0 0.0
19/03:30am 26.1 28.8 24.1 89 1.4 WNW 17 20 9 11 1007.9 1007.9 0.0
19/03:00am 26.2 29.1 24.4 90 1.2 WNW 17 20 9 11 1007.8 1007.8 0.0
19/02:30am 26.3 29.2 24.5 90 1.2 NW 17 20 9 11 1007.8 1007.8 0.0
19/02:00am 26.4 29.8 24.6 90 1.3 NW 15 20 8 11 1007.7 1007.7 0.0
19/01:30am 26.8 29.6 24.3 86 1.7 WNW 17 20 9 11 1007.6 1007.6 0.0
19/01:00am 26.9 30.0 24.2 85 1.9 WNW 15 20 8 11 1007.8 1007.8 0.0
19/12:30am 26.9 30.1 24.4 86 1.7 WNW 15 19 8 10 1008.1 1008.1 0.0
19/12:00am 27.1 30.2 24.2 84 2.0 WNW 15 19 8 10 1008.4 1008.4 0.0
 
Date/Time
WST
Temp
°C
App
Temp
°C
Dew
Point
Rel
Hum
%
Delta-T
°C
Wind Press
QNH
hPa
Press
MSL
hPa
Rain
since 9 am
mm
Dir
 
Spd
km/h
Gust
km/h
Spd
kts
Gust
kts
18/11:30pm 27.3 30.4 24.2 83 2.1 WNW 15 20 8 11 1008.4 1008.4 0.0
18/11:00pm 27.3 30.5 24.4 84 2.0 WNW 15 19 8 10 1008.4 1008.4 0.0
18/10:30pm 27.4 29.9 24.5 84 2.0 WNW 19 24 10 13 1008.1 1008.1 0.0
18/10:00pm 27.5 30.0 24.5 84 2.1 W 19 24 10 13 1007.9 1007.9 0.0
18/09:30pm 27.6 30.2 24.6 84 2.1 WNW 19 24 10 13 1007.7 1007.7 0.0
18/09:00pm 27.8 29.7 24.4 82 2.4 WNW 22 32 12 17 1007.1 1007.1 0.0
18/08:30pm 27.9 29.2 24.1 80 2.6 WNW 24 33 13 18 1007.0 1007.0 0.0

Other Formats:

Comma delimited format used in spreadsheet applications
http://www.bom.gov.au/fwo/IDW60801/IDW60801.95307.axf

JavaScript Object Notation format (JSON) in row-major order
http://www.bom.gov.au/fwo/IDW60801/IDW60801.95307.json